createdAt,value
2016-09-16T00:00:54.685Z,17.67
2016-09-16T00:01:54.776Z,17.6
2016-09-16T00:02:57.717Z,17.52
2016-09-16T00:03:55.733Z,17.56
2016-09-16T00:04:55.232Z,17.56
2016-09-16T00:05:56.486Z,17.38
2016-09-16T00:06:58.010Z,17.3
2016-09-16T00:07:57.153Z,17.3
2016-09-16T00:08:56.690Z,17.27
2016-09-16T00:09:55.026Z,17.41
2016-09-16T00:10:56.317Z,17.36
2016-09-16T00:11:56.138Z,17.23
2016-09-16T00:12:56.771Z,17.33
2016-09-16T00:13:56.609Z,17.44
2016-09-16T00:14:56.498Z,17.51
2016-09-16T00:15:55.344Z,17.59
2016-09-16T00:16:56.688Z,17.63
2016-09-16T00:17:56.621Z,17.65
2016-09-16T00:18:55.208Z,17.68
2016-09-16T00:19:56.201Z,17.65
2016-09-16T00:20:56.998Z,17.46
2016-09-16T00:21:55.381Z,17.22
2016-09-16T00:22:56.096Z,17.11
2016-09-16T00:23:56.626Z,17.12
2016-09-16T00:24:56.309Z,17.24
2016-09-16T00:25:57.264Z,17.31
2016-09-16T00:26:56.054Z,17.29
2016-09-16T00:27:56.330Z,17.3
2016-09-16T00:28:56.077Z,17.44
2016-09-16T00:29:57.781Z,17.29
2016-09-16T00:30:56.531Z,17.27
2016-09-16T00:31:57.208Z,17.2
2016-09-16T00:32:55.774Z,17.26
2016-09-16T00:33:57.369Z,17.31
2016-09-16T00:34:56.581Z,17.41
2016-09-16T00:35:56.719Z,17.42
2016-09-16T00:36:56.419Z,17.41
2016-09-16T00:37:57.770Z,17.36
2016-09-16T00:38:56.543Z,17.48
2016-09-16T00:39:56.859Z,17.49
2016-09-16T00:40:56.633Z,17.34
2016-09-16T00:41:56.758Z,17.54
2016-09-16T00:42:56.791Z,17.51
2016-09-16T00:43:56.753Z,17.39
2016-09-16T00:44:56.450Z,17.24
2016-09-16T00:45:56.079Z,17.3
2016-09-16T00:46:56.607Z,17.33
2016-09-16T00:47:56.688Z,17.22
2016-09-16T00:48:57.951Z,17.26
2016-09-16T00:49:58.137Z,17.24
2016-09-16T00:50:56.778Z,17.15
2016-09-16T00:51:56.977Z,17.24
2016-09-16T00:52:57.074Z,17.12
2016-09-16T00:53:57.452Z,17.06
2016-09-16T00:54:56.656Z,17.34
2016-09-16T00:55:57.406Z,17.39
2016-09-16T00:56:58.436Z,17.38
2016-09-16T00:57:57.171Z,17.34
2016-09-16T00:58:57.185Z,17.31
2016-09-16T00:59:57.204Z,17.36
2016-09-16T01:00:57.232Z,17.24
2016-09-16T01:01:57.104Z,17.24
2016-09-16T01:02:57.351Z,17.26
2016-09-16T01:03:58.023Z,17.23
2016-09-16T01:04:57.998Z,17.3
2016-09-16T01:05:57.476Z,17.38
2016-09-16T01:06:57.471Z,17.39
2016-09-16T01:07:57.799Z,17.33
2016-09-16T01:08:57.125Z,17.22
2016-09-16T01:09:58.712Z,17.04
2016-09-16T01:10:57.491Z,16.97
2016-09-16T01:11:59.427Z,16.99
2016-09-16T01:12:57.251Z,16.99
2016-09-16T01:13:58.358Z,16.87
2016-09-16T01:14:57.382Z,17.02
2016-09-16T01:15:57.575Z,17.11
2016-09-16T01:16:57.197Z,17.24
2016-09-16T01:17:57.872Z,17.27
2016-09-16T01:18:57.808Z,17.33
2016-09-16T01:19:58.125Z,17.11
2016-09-16T01:20:56.998Z,17.2
2016-09-16T01:21:58.763Z,17.41
2016-09-16T01:22:58.333Z,17.41
2016-09-16T01:23:57.512Z,17.36
2016-09-16T01:24:57.641Z,17.52
2016-09-16T01:25:57.817Z,17.51
2016-09-16T01:26:58.292Z,17.6
2016-09-16T01:27:57.062Z,17.63
2016-09-16T01:28:58.506Z,17.7
2016-09-16T01:29:58.885Z,17.65
2016-09-16T01:30:59.040Z,17.64
2016-09-16T01:31:57.695Z,17.54
2016-09-16T01:32:58.200Z,17.12
2016-09-16T01:33:56.924Z,16.93
2016-09-16T01:34:58.064Z,17.04
2016-09-16T01:35:58.194Z,17.16
2016-09-16T01:36:56.574Z,17.16
2016-09-16T01:37:57.752Z,17.08
2016-09-16T01:38:58.869Z,17.09
2016-09-16T01:39:57.612Z,17.16
2016-09-16T01:40:58.528Z,17.06
2016-09-16T01:41:58.420Z,17.24
2016-09-16T01:42:58.103Z,17.22
2016-09-16T01:43:57.900Z,17.27
2016-09-16T01:44:57.172Z,17.34
2016-09-16T01:45:58.239Z,17.22
2016-09-16T01:46:57.049Z,17.16
2016-09-16T01:47:57.752Z,17.3
2016-09-16T01:48:58.172Z,17.24
2016-09-16T01:49:56.856Z,17.31
2016-09-16T01:50:56.762Z,17.27
2016-09-16T01:51:59.227Z,17.29
2016-09-16T01:52:57.597Z,17.23
2016-09-16T01:53:58.453Z,17.24
2016-09-16T01:54:58.126Z,17.26
2016-09-16T01:55:57.738Z,17.45
2016-09-16T01:56:59.015Z,17.63
2016-09-16T01:57:58.715Z,17.56
2016-09-16T01:58:58.953Z,17.41
2016-09-16T01:59:59.175Z,17.51
2016-09-16T02:00:58.150Z,17.48
2016-09-16T02:01:58.072Z,17.45
2016-09-16T02:02:57.786Z,17.57
2016-09-16T02:03:58.176Z,17.54
2016-09-16T02:04:57.739Z,17.64
2016-09-16T02:05:57.728Z,17.63
2016-09-16T02:06:59.016Z,17.63
2016-09-16T02:07:58.935Z,17.68
2016-09-16T02:08:58.001Z,17.7
2016-09-16T02:09:57.918Z,17.65
2016-09-16T02:10:57.837Z,17.54
2016-09-16T02:11:59.101Z,17.45
2016-09-16T02:12:58.507Z,17.44
2016-09-16T02:13:58.827Z,17.65
2016-09-16T02:14:58.304Z,17.52
2016-09-16T02:15:58.615Z,17.52
2016-09-16T02:17:00.844Z,17.54
2016-09-16T02:18:00.547Z,17.57
2016-09-16T02:18:59.350Z,17.54
2016-09-16T02:19:59.600Z,17.41
2016-09-16T02:20:59.322Z,17.38
2016-09-16T02:21:59.369Z,17.3
2016-09-16T02:22:57.648Z,17.23
2016-09-16T02:23:59.482Z,17.29
2016-09-16T02:24:58.754Z,17.24
2016-09-16T02:25:59.400Z,17.3
2016-09-16T02:26:58.525Z,17.27
2016-09-16T02:27:58.416Z,17.23
2016-09-16T02:28:58.462Z,17.24
2016-09-16T02:29:58.061Z,17.15
2016-09-16T02:30:59.389Z,17.27
2016-09-16T02:31:58.603Z,17.23
2016-09-16T02:32:59.060Z,17.27
2016-09-16T02:33:57.826Z,17.39
2016-09-16T02:34:59.446Z,17.36
2016-09-16T02:35:59.966Z,17.45
2016-09-16T02:36:59.503Z,17.51
2016-09-16T02:37:59.641Z,17.56
2016-09-16T02:38:58.749Z,17.44
2016-09-16T02:39:58.157Z,17.49
2016-09-16T02:41:00.204Z,17.65
2016-09-16T02:41:59.165Z,17.68
2016-09-16T02:42:59.729Z,17.65
2016-09-16T02:44:00.525Z,17.65
2016-09-16T02:44:59.367Z,17.52
2016-09-16T02:45:58.757Z,17.49
2016-09-16T02:46:59.732Z,17.52
2016-09-16T02:48:00.209Z,17.51
2016-09-16T02:48:59.111Z,17.65
2016-09-16T02:49:59.988Z,17.63
2016-09-16T02:50:59.087Z,17.65
2016-09-16T02:52:00.275Z,17.64
2016-09-16T02:52:58.263Z,17.65
2016-09-16T02:53:58.961Z,17.63
2016-09-16T02:55:01.579Z,17.68
2016-09-16T02:56:00.041Z,17.63
2016-09-16T02:57:00.537Z,17.59
2016-09-16T02:58:00.874Z,17.59
2016-09-16T02:59:00.899Z,17.49
2016-09-16T03:00:00.181Z,17.45
2016-09-16T03:01:00.749Z,17.39
2016-09-16T03:01:59.963Z,17.52
2016-09-16T03:02:59.928Z,17.56
2016-09-16T03:03:59.990Z,17.64
2016-09-16T03:04:59.050Z,17.65
2016-09-16T03:06:00.419Z,17.79
2016-09-16T03:07:00.082Z,17.82
2016-09-16T03:07:59.327Z,17.64
2016-09-16T03:08:59.871Z,17.29
2016-09-16T03:09:59.274Z,17.31
2016-09-16T03:11:00.793Z,17.26
2016-09-16T03:11:59.473Z,17.38
2016-09-16T03:13:00.034Z,17.33
2016-09-16T03:14:00.365Z,17.29
2016-09-16T03:14:59.930Z,17.27
2016-09-16T03:15:59.716Z,17.26
2016-09-16T03:17:00.946Z,17.14
2016-09-16T03:17:59.415Z,17.19
2016-09-16T03:18:59.945Z,17.42
2016-09-16T03:20:00.593Z,17.24
2016-09-16T03:21:01.136Z,17.31
2016-09-16T03:21:59.993Z,17.34
2016-09-16T03:23:00.923Z,17.41
2016-09-16T03:23:59.503Z,17.56
2016-09-16T03:24:59.467Z,17.6
2016-09-16T03:25:59.844Z,17.64
2016-09-16T03:27:01.943Z,17.59
2016-09-16T03:28:00.565Z,17.59
2016-09-16T03:29:00.129Z,17.64
2016-09-16T03:30:01.266Z,17.71
2016-09-16T03:30:59.848Z,17.6
2016-09-16T03:32:00.428Z,17.49
2016-09-16T03:33:00.099Z,17.44
2016-09-16T03:34:00.663Z,17.36
2016-09-16T03:35:02.204Z,17.3
2016-09-16T03:36:02.143Z,17.23
2016-09-16T03:37:00.754Z,17.08
2016-09-16T03:37:59.960Z,17.11
2016-09-16T03:38:59.728Z,17.24
2016-09-16T03:40:00.282Z,17.22
2016-09-16T03:41:00.527Z,17.38
2016-09-16T03:42:01.688Z,17.38
2016-09-16T03:43:00.255Z,17.2
2016-09-16T03:44:00.545Z,17.08
2016-09-16T03:45:00.066Z,17.12
2016-09-16T03:46:02.500Z,17.24
2016-09-16T03:47:02.553Z,17.24
2016-09-16T03:48:00.475Z,17.19
2016-09-16T03:48:59.867Z,17.38
2016-09-16T03:49:59.643Z,17.49
2016-09-16T03:50:59.852Z,17.46
2016-09-16T03:52:02.014Z,17.49
2016-09-16T03:53:02.259Z,17.56
2016-09-16T03:54:01.316Z,17.51
2016-09-16T03:55:00.482Z,17.51
2016-09-16T03:56:00.312Z,17.38
2016-09-16T03:57:00.391Z,17.33
2016-09-16T03:58:00.717Z,17.42
2016-09-16T03:59:01.500Z,17.46
2016-09-16T04:00:00.879Z,17.52
2016-09-16T04:01:01.362Z,17.51
2016-09-16T04:02:02.071Z,17.6
2016-09-16T04:03:00.913Z,17.6
2016-09-16T04:04:01.427Z,17.65
2016-09-16T04:05:01.677Z,17.67
2016-09-16T04:06:02.870Z,17.67
2016-09-16T04:07:03.245Z,17.65
2016-09-16T04:08:01.717Z,17.57
2016-09-16T04:09:00.579Z,17.54
2016-09-16T04:10:02.087Z,17.59
2016-09-16T04:11:01.721Z,17.59
2016-09-16T04:12:01.684Z,17.6
2016-09-16T04:13:02.355Z,17.54
2016-09-16T04:13:59.761Z,17.56
2016-09-16T04:15:01.787Z,17.26
2016-09-16T04:16:01.871Z,17.31
2016-09-16T04:17:02.604Z,17.31
2016-09-16T04:18:00.369Z,17.36
2016-09-16T04:19:00.034Z,17.23
2016-09-16T04:20:01.366Z,17.38
2016-09-16T04:21:01.334Z,17.31
2016-09-16T04:22:04.027Z,17.24
2016-09-16T04:23:02.056Z,17.15
2016-09-16T04:24:01.659Z,17.05
2016-09-16T04:25:02.424Z,16.89
2016-09-16T04:26:03.002Z,16.83
2016-09-16T04:27:02.380Z,16.81
2016-09-16T04:28:00.980Z,16.86
2016-09-16T04:29:02.654Z,16.83
2016-09-16T04:30:03.653Z,16.89
2016-09-16T04:31:02.430Z,16.94
2016-09-16T04:32:00.980Z,16.93
2016-09-16T04:33:02.363Z,17.11
2016-09-16T04:34:00.740Z,17.14
2016-09-16T04:35:03.112Z,17.12
2016-09-16T04:36:02.049Z,16.94
2016-09-16T04:37:01.506Z,16.91
2016-09-16T04:38:01.720Z,16.91
2016-09-16T04:39:02.546Z,16.96
2016-09-16T04:40:01.737Z,16.86
2016-09-16T04:41:02.324Z,16.81
2016-09-16T04:42:01.764Z,16.91
2016-09-16T04:43:01.385Z,16.93
2016-09-16T04:44:02.054Z,16.94
2016-09-16T04:45:03.748Z,16.84
2016-09-16T04:46:02.582Z,17.12
2016-09-16T04:47:02.681Z,17.01
2016-09-16T04:48:02.980Z,17.09
2016-09-16T04:49:02.179Z,17.14
2016-09-16T04:50:03.041Z,17.01
2016-09-16T04:51:03.276Z,16.89
2016-09-16T04:52:03.333Z,16.9
2016-09-16T04:53:02.072Z,17.02
2016-09-16T04:54:02.069Z,17.06
2016-09-16T04:55:03.577Z,17.14
2016-09-16T04:56:02.943Z,17.08
2016-09-16T04:57:02.615Z,17.09
2016-09-16T04:58:02.903Z,17.06
2016-09-16T04:59:02.995Z,17.08
2016-09-16T05:00:03.780Z,17.12
2016-09-16T05:01:04.615Z,17.12
2016-09-16T05:02:01.740Z,17.15
2016-09-16T05:03:02.311Z,17.26
2016-09-16T05:04:03.174Z,17.19
2016-09-16T05:05:03.697Z,17.23
2016-09-16T05:06:02.578Z,17.26
2016-09-16T05:07:02.840Z,17.2
2016-09-16T05:08:02.425Z,17.24
2016-09-16T05:09:03.941Z,17.16
2016-09-16T05:10:02.707Z,17.23
2016-09-16T05:11:04.982Z,17.3
2016-09-16T05:12:03.687Z,17.29
2016-09-16T05:13:03.313Z,17.26
2016-09-16T05:14:03.356Z,17.31
2016-09-16T05:15:02.514Z,17.34
2016-09-16T05:16:04.008Z,17.39
2016-09-16T05:17:02.278Z,17.26
2016-09-16T05:18:02.304Z,17.24
2016-09-16T05:19:02.017Z,17.27
2016-09-16T05:20:02.961Z,17.33
2016-09-16T05:21:02.627Z,17.3
2016-09-16T05:22:03.791Z,17.24
2016-09-16T05:23:03.066Z,17.2
2016-09-16T05:24:03.114Z,17.29
2016-09-16T05:25:03.342Z,17.23
2016-09-16T05:26:03.431Z,17.27
2016-09-16T05:27:02.654Z,17.27
2016-09-16T05:28:02.315Z,17.12
2016-09-16T05:29:03.090Z,17.12
2016-09-16T05:30:03.875Z,17.06
2016-09-16T05:31:04.475Z,16.96
2016-09-16T05:32:02.157Z,17.19
2016-09-16T05:33:02.473Z,17.11
2016-09-16T05:34:03.683Z,17.27
2016-09-16T05:35:03.204Z,17.33
2016-09-16T05:36:03.394Z,17.23
2016-09-16T05:37:03.500Z,17.36
2016-09-16T05:38:03.617Z,17.27
2016-09-16T05:39:05.288Z,17.27
2016-09-16T05:40:02.291Z,17.16
2016-09-16T05:41:03.877Z,17.12
2016-09-16T05:42:03.255Z,17.11
2016-09-16T05:43:02.408Z,17.16
2016-09-16T05:44:03.384Z,17.14
2016-09-16T05:45:03.149Z,17.27
2016-09-16T05:46:04.646Z,17.26
2016-09-16T05:47:05.008Z,17.36
2016-09-16T05:48:04.506Z,17.48
2016-09-16T05:49:03.996Z,17.41
2016-09-16T05:50:05.543Z,17.44
2016-09-16T05:51:09.171Z,17.49
2016-09-16T05:52:04.658Z,17.64
2016-09-16T05:53:05.698Z,17.7
2016-09-16T05:54:05.588Z,17.59
2016-09-16T05:55:04.405Z,17.74
2016-09-16T05:56:05.149Z,17.65
2016-09-16T05:57:04.099Z,17.6
2016-09-16T05:58:05.819Z,17.41
2016-09-16T05:59:05.820Z,17.36
2016-09-16T06:00:05.278Z,17.31
2016-09-16T06:01:04.636Z,17.29
2016-09-16T06:02:06.397Z,17.39
2016-09-16T06:03:03.416Z,17.42
2016-09-16T06:04:04.744Z,17.48
2016-09-16T06:05:05.078Z,17.57
2016-09-16T06:06:04.564Z,17.51
2016-09-16T06:07:06.221Z,17.51
2016-09-16T06:08:07.168Z,17.6
2016-09-16T06:09:06.753Z,17.56
2016-09-16T06:10:02.990Z,17.63
2016-09-16T06:11:02.812Z,17.63
2016-09-16T06:12:02.737Z,17.71
2016-09-16T06:13:04.846Z,17.54
2016-09-16T06:14:03.416Z,17.71
2016-09-16T06:15:05.754Z,17.68
2016-09-16T06:16:02.953Z,17.7
2016-09-16T06:17:03.950Z,17.7
2016-09-16T06:18:03.181Z,17.72
2016-09-16T06:19:04.168Z,17.68
2016-09-16T06:20:04.086Z,17.79
2016-09-16T06:21:03.404Z,17.74
2016-09-16T06:22:03.863Z,17.87
2016-09-16T06:23:04.077Z,17.98
2016-09-16T06:24:03.960Z,18.01
2016-09-16T06:25:04.308Z,18.04
2016-09-16T06:26:03.492Z,17.98
2016-09-16T06:27:01.852Z,18.13
2016-09-16T06:28:02.505Z,18.16
2016-09-16T06:29:03.707Z,18.1
2016-09-16T06:30:03.743Z,18.15
2016-09-16T06:31:04.107Z,18.07
2016-09-16T06:32:04.037Z,18.11
2016-09-16T06:33:03.414Z,18.26
2016-09-16T06:34:03.080Z,18.22
2016-09-16T06:35:04.099Z,18.15
2016-09-16T06:36:03.119Z,18.18
2016-09-16T06:37:02.912Z,18.22
2016-09-16T06:38:03.487Z,18.25
2016-09-16T06:39:03.023Z,18.28
2016-09-16T06:40:03.267Z,18.35
2016-09-16T06:41:03.154Z,18.37
2016-09-16T06:42:03.935Z,18.53
2016-09-16T06:43:03.415Z,18.52
2016-09-16T06:44:03.637Z,18.74
2016-09-16T06:45:03.692Z,18.78
2016-09-16T06:46:03.130Z,18.78
2016-09-16T06:47:03.481Z,18.89
2016-09-16T06:48:03.032Z,19.02
2016-09-16T06:49:04.931Z,19.21
2016-09-16T06:50:04.491Z,19.15
2016-09-16T06:51:02.930Z,18.95
2016-09-16T06:52:03.302Z,18.71
2016-09-16T06:53:03.425Z,18.73
2016-09-16T06:54:03.623Z,18.63
2016-09-16T06:55:03.593Z,18.62
2016-09-16T06:56:03.667Z,18.81
2016-09-16T06:57:03.847Z,19.12
2016-09-16T06:58:03.641Z,19.36
2016-09-16T06:59:04.464Z,19.48
2016-09-16T07:00:03.912Z,19.34
2016-09-16T07:01:03.913Z,19.33
2016-09-16T07:02:03.267Z,19.26
2016-09-16T07:03:03.701Z,19.21
2016-09-16T07:04:04.926Z,19.18
2016-09-16T07:05:06.512Z,19.24
2016-09-16T07:06:05.260Z,19.02
2016-09-16T07:07:04.645Z,19.26
2016-09-16T07:08:05.127Z,19.07
2016-09-16T07:09:03.795Z,19.09
2016-09-16T07:10:04.374Z,19.21
2016-09-16T07:11:03.889Z,19.33
2016-09-16T07:12:05.543Z,19.34
2016-09-16T07:13:04.811Z,19.19
2016-09-16T07:14:04.344Z,19.31
2016-09-16T07:15:06.729Z,19.27
2016-09-16T07:16:05.194Z,19.27
2016-09-16T07:17:05.979Z,19.26
2016-09-16T07:18:06.413Z,19.19
2016-09-16T07:19:04.318Z,19.22
2016-09-16T07:20:04.307Z,19.24
2016-09-16T07:21:04.337Z,19.37
2016-09-16T07:22:04.864Z,19.39
2016-09-16T07:23:06.157Z,19.63
2016-09-16T07:24:04.678Z,19.49
2016-09-16T07:25:05.480Z,19.56
2016-09-16T07:26:04.156Z,19.67
2016-09-16T07:27:04.381Z,19.64
2016-09-16T07:28:05.980Z,19.4
2016-09-16T07:29:03.887Z,19.62
2016-09-16T07:30:05.682Z,19.52
2016-09-16T07:31:05.176Z,19.51
2016-09-16T07:32:06.022Z,19.27
2016-09-16T07:33:05.398Z,19.15
2016-09-16T07:34:05.588Z,19.16
2016-09-16T07:35:05.225Z,19.15
2016-09-16T07:36:06.002Z,19.29
2016-09-16T07:37:06.409Z,19.36
2016-09-16T07:38:05.669Z,19.37
2016-09-16T07:39:04.905Z,19.22
2016-09-16T07:40:04.663Z,19.39
2016-09-16T07:41:06.218Z,19.39
2016-09-16T07:42:06.236Z,19.39
2016-09-16T07:43:04.879Z,19.44
2016-09-16T07:44:05.966Z,19.63
2016-09-16T07:45:04.364Z,19.84
2016-09-16T07:46:04.776Z,20.14
2016-09-16T07:47:05.360Z,20.1
2016-09-16T07:48:05.520Z,19.92
2016-09-16T07:49:06.247Z,19.84
2016-09-16T07:50:06.885Z,20.1
2016-09-16T07:51:06.185Z,19.84
2016-09-16T07:52:06.281Z,19.85
2016-09-16T07:53:06.691Z,19.86
2016-09-16T07:54:04.789Z,19.79
2016-09-16T07:55:05.342Z,19.85
2016-09-16T07:56:05.663Z,19.84
2016-09-16T07:57:06.263Z,19.91
2016-09-16T07:58:05.459Z,20.02
2016-09-16T07:59:05.475Z,19.96
2016-09-16T08:00:07.025Z,20.03
2016-09-16T08:01:04.986Z,20.09
2016-09-16T08:02:07.181Z,20.07
2016-09-16T08:03:05.976Z,19.89
2016-09-16T08:04:06.826Z,19.92
2016-09-16T08:05:08.342Z,19.95
2016-09-16T08:06:06.211Z,19.88
2016-09-16T08:07:06.754Z,19.94
2016-09-16T08:08:07.085Z,19.88
2016-09-16T08:09:06.205Z,20.1
2016-09-16T08:10:06.242Z,19.95
2016-09-16T08:11:07.265Z,20.1
2016-09-16T08:12:07.731Z,20.1
2016-09-16T08:13:06.529Z,20.07
2016-09-16T08:14:06.120Z,20.1
2016-09-16T08:15:07.613Z,19.91
2016-09-16T08:16:06.820Z,19.96
2016-09-16T08:17:06.014Z,20.09
2016-09-16T08:18:06.009Z,20.02
2016-09-16T08:19:06.279Z,19.99
2016-09-16T08:20:05.627Z,20
2016-09-16T08:21:05.980Z,20.07
2016-09-16T08:22:06.452Z,20.1
2016-09-16T08:23:06.089Z,20.18
2016-09-16T08:24:05.653Z,20.16
2016-09-16T08:25:06.335Z,20.04
2016-09-16T08:26:06.732Z,20.21
2016-09-16T08:27:06.414Z,20.16
2016-09-16T08:28:06.535Z,20.41
2016-09-16T08:29:07.127Z,20.5
2016-09-16T08:30:06.615Z,20.66
2016-09-16T08:31:06.216Z,20.9
2016-09-16T08:32:06.457Z,20.67
2016-09-16T08:33:07.134Z,20.44
2016-09-16T08:34:07.047Z,20.25
2016-09-16T08:35:06.587Z,20.24
2016-09-16T08:36:05.971Z,20.29
2016-09-16T08:37:07.051Z,20.28
2016-09-16T08:38:06.423Z,20.41
2016-09-16T08:39:05.785Z,20.19
2016-09-16T08:40:07.880Z,20.14
2016-09-16T08:41:06.469Z,20.14
2016-09-16T08:42:06.753Z,20.14
2016-09-16T08:43:05.557Z,20.25
2016-09-16T08:44:07.839Z,20.39
2016-09-16T08:45:07.884Z,20.43
2016-09-16T08:46:06.503Z,20.34
2016-09-16T08:47:06.669Z,20.56
2016-09-16T08:48:07.196Z,20.43
2016-09-16T08:49:08.877Z,20.11
2016-09-16T08:50:08.440Z,20.26
2016-09-16T08:51:06.293Z,20.19
2016-09-16T08:52:06.829Z,20.29
2016-09-16T08:53:06.555Z,20.34
2016-09-16T08:54:08.022Z,20.26
2016-09-16T08:55:08.425Z,20.21
2016-09-16T08:56:06.166Z,20.4
2016-09-16T08:57:06.882Z,20.43
2016-09-16T08:58:08.717Z,20.36
2016-09-16T08:59:07.709Z,20.31
2016-09-16T09:00:07.187Z,20.19
2016-09-16T09:01:06.317Z,20.22
2016-09-16T09:02:06.720Z,20.4
2016-09-16T09:03:08.232Z,20.28
2016-09-16T09:04:07.345Z,20.32
2016-09-16T09:05:07.405Z,20.28
2016-09-16T09:06:07.579Z,20.55
2016-09-16T09:07:06.591Z,20.6
2016-09-16T09:08:07.689Z,20.63
2016-09-16T09:09:07.010Z,20.78
2016-09-16T09:10:08.559Z,20.87
2016-09-16T09:11:07.459Z,21
2016-09-16T09:12:07.658Z,21
2016-09-16T09:13:06.612Z,20.96
2016-09-16T09:14:07.957Z,20.88
2016-09-16T09:15:07.947Z,20.78
2016-09-16T09:16:08.602Z,20.9
2016-09-16T09:17:08.007Z,20.95
2016-09-16T09:18:08.428Z,20.67
2016-09-16T09:19:08.019Z,20.65
2016-09-16T09:20:07.692Z,20.65
2016-09-16T09:21:07.820Z,20.77
2016-09-16T09:22:07.757Z,20.78
2016-09-16T09:23:07.654Z,20.97
2016-09-16T09:24:07.533Z,21.37
2016-09-16T09:25:07.859Z,21.42
2016-09-16T09:26:07.593Z,21.35
2016-09-16T09:27:07.772Z,20.96
2016-09-16T09:28:08.846Z,21.05
2016-09-16T09:29:07.685Z,21.05
2016-09-16T09:30:08.558Z,21.3
2016-09-16T09:31:08.047Z,21
2016-09-16T09:32:08.346Z,21.02
2016-09-16T09:33:08.981Z,21.4
2016-09-16T09:34:08.557Z,22
2016-09-16T09:35:08.095Z,21.5
2016-09-16T09:36:08.106Z,21.36
2016-09-16T09:37:09.553Z,21.64
2016-09-16T09:38:09.129Z,21.2
2016-09-16T09:39:09.227Z,20.96
2016-09-16T09:40:08.554Z,21.15
2016-09-16T09:41:09.517Z,21.29
2016-09-16T09:42:09.256Z,21.17
2016-09-16T09:43:08.341Z,21.11
2016-09-16T09:44:09.008Z,21.03
2016-09-16T09:45:08.667Z,21.17
2016-09-16T09:46:07.441Z,21.4
2016-09-16T09:47:07.866Z,21.42
2016-09-16T09:48:08.341Z,21.39
2016-09-16T09:49:09.044Z,21.46
2016-09-16T09:50:07.668Z,21.82
2016-09-16T09:51:07.591Z,21.33
2016-09-16T09:52:08.985Z,21.14
2016-09-16T09:53:09.631Z,21.32
2016-09-16T09:54:09.637Z,21.32
2016-09-16T09:55:07.570Z,20.97
2016-09-16T09:56:09.045Z,21.03
2016-09-16T09:57:09.264Z,21.36
2016-09-16T09:58:08.140Z,21.36
2016-09-16T09:59:10.501Z,21.66
2016-09-16T10:00:09.836Z,22.08
2016-09-16T10:01:08.385Z,22.22
2016-09-16T10:02:09.126Z,21.99
2016-09-16T10:03:10.258Z,21.91
2016-09-16T10:04:09.072Z,21.37
2016-09-16T10:05:09.243Z,21.37
2016-09-16T10:06:08.828Z,21.93
2016-09-16T10:07:08.842Z,22.29
2016-09-16T10:08:09.683Z,22.7
2016-09-16T10:09:09.124Z,23.93
2016-09-16T10:10:09.854Z,24.33
2016-09-16T10:11:08.739Z,23.59
2016-09-16T10:12:09.593Z,23.91
2016-09-16T10:13:10.433Z,23.47
2016-09-16T10:14:10.449Z,22.75
2016-09-16T10:15:08.690Z,23.51
2016-09-16T10:16:09.617Z,24.54
2016-09-16T10:17:09.831Z,24.88
2016-09-16T10:18:09.954Z,25.84
2016-09-16T10:19:10.411Z,25.16
2016-09-16T10:20:08.951Z,24.88
2016-09-16T10:21:10.593Z,24.57
2016-09-16T10:22:09.475Z,25.47
2016-09-16T10:23:09.837Z,24.92
2016-09-16T10:24:09.560Z,23.86
2016-09-16T10:25:09.442Z,24.01
2016-09-16T10:26:09.440Z,23.83
2016-09-16T10:27:10.501Z,23.03
2016-09-16T10:28:09.943Z,23
2016-09-16T10:29:10.321Z,23.84
2016-09-16T10:30:09.640Z,24.29
2016-09-16T10:31:10.179Z,24.01
2016-09-16T10:32:09.726Z,24.84
2016-09-16T10:33:09.626Z,24.05
2016-09-16T10:34:10.145Z,24.74
2016-09-16T10:35:10.336Z,24.74
2016-09-16T10:36:09.478Z,23.95
2016-09-16T10:37:10.455Z,24.35
2016-09-16T10:38:10.439Z,23.86
2016-09-16T10:39:08.890Z,24.38
2016-09-16T10:40:09.840Z,24.89
2016-09-16T10:41:09.772Z,24.77
2016-09-16T10:42:09.460Z,24.7
2016-09-16T10:43:09.497Z,24.84
2016-09-16T10:44:11.153Z,25.38
2016-09-16T10:45:09.966Z,24.89
2016-09-16T10:46:10.186Z,25.01
2016-09-16T10:47:10.217Z,25.43
2016-09-16T10:48:10.144Z,24.96
2016-09-16T10:49:09.088Z,24.26
2016-09-16T10:50:10.124Z,24.38
2016-09-16T10:51:10.646Z,24.66
2016-09-16T10:52:10.098Z,24.48
2016-09-16T10:53:10.795Z,24.6
2016-09-16T10:54:09.347Z,25.08
2016-09-16T10:55:09.152Z,24.99
2016-09-16T10:56:10.901Z,24.16
2016-09-16T10:57:09.428Z,24.43
2016-09-16T10:58:10.900Z,24.84
2016-09-16T10:59:11.631Z,25.17
2016-09-16T11:00:09.795Z,25.14
2016-09-16T11:01:09.632Z,24.38
2016-09-16T11:02:10.840Z,24.4
2016-09-16T11:03:10.062Z,24.35
2016-09-16T11:04:11.921Z,24.2
2016-09-16T11:05:10.629Z,23.56
2016-09-16T11:06:09.920Z,23.61
2016-09-16T11:07:11.678Z,23.51
2016-09-16T11:08:11.375Z,23.71
2016-09-16T11:09:11.217Z,24.48
2016-09-16T11:10:10.420Z,24.84
2016-09-16T11:11:10.771Z,24.33
2016-09-16T11:12:10.445Z,24.45
2016-09-16T11:13:11.059Z,24.68
2016-09-16T11:14:09.527Z,25.21
2016-09-16T11:15:10.664Z,25.87
2016-09-16T11:16:11.015Z,26.16
2016-09-16T11:17:10.229Z,25.69
2016-09-16T11:18:09.816Z,25.16
2016-09-16T11:19:11.072Z,24.7
2016-09-16T11:20:11.877Z,24.32
2016-09-16T11:21:10.347Z,24.98
2016-09-16T11:22:11.088Z,25.23
2016-09-16T11:23:10.760Z,25.11
2016-09-16T11:24:10.994Z,24.89
2016-09-16T11:25:11.386Z,25.18
2016-09-16T11:26:10.885Z,25.18
2016-09-16T11:27:10.692Z,25.17
2016-09-16T11:28:11.346Z,24.76
2016-09-16T11:29:12.098Z,24.74
2016-09-16T11:30:10.766Z,25.21
2016-09-16T11:31:10.970Z,26.18
2016-09-16T11:32:11.428Z,26.18
2016-09-16T11:33:11.206Z,26.18
2016-09-16T11:34:12.234Z,27.29
2016-09-16T11:35:10.045Z,27.15
2016-09-16T11:36:11.501Z,26.62
2016-09-16T11:37:11.044Z,26.05
2016-09-16T11:38:10.885Z,26.75
2016-09-16T11:39:11.806Z,26.77
2016-09-16T11:40:09.987Z,26.28
2016-09-16T11:41:10.858Z,25.84
2016-09-16T11:42:10.575Z,25.78
2016-09-16T11:43:11.861Z,25.25
2016-09-16T11:44:10.957Z,24.91
2016-09-16T11:45:12.138Z,24.68
2016-09-16T11:46:12.151Z,24.99
2016-09-16T11:47:11.745Z,25.4
2016-09-16T11:48:11.464Z,25.77
2016-09-16T11:49:10.981Z,26.29
2016-09-16T11:50:11.918Z,26.31
2016-09-16T11:51:11.718Z,26.45
2016-09-16T11:52:11.917Z,26.33
2016-09-16T11:53:11.895Z,25.93
2016-09-16T11:54:11.798Z,25.5
2016-09-16T11:55:10.817Z,25.35
2016-09-16T11:56:12.590Z,25.28
2016-09-16T11:57:12.347Z,25.83
2016-09-16T11:58:12.699Z,25.58
2016-09-16T11:59:12.600Z,25.47
2016-09-16T12:00:12.068Z,24.48
2016-09-16T12:01:12.248Z,24.43
2016-09-16T12:02:12.614Z,24.24
2016-09-16T12:03:11.228Z,24.26
2016-09-16T12:04:12.569Z,24.14
2016-09-16T12:05:12.559Z,24.63
2016-09-16T12:06:11.940Z,24.8
2016-09-16T12:07:12.193Z,25.13
2016-09-16T12:08:11.266Z,25.13
2016-09-16T12:09:12.138Z,24.92
2016-09-16T12:10:11.746Z,24.4
2016-09-16T12:11:12.531Z,24.05
2016-09-16T12:12:12.996Z,24.08
2016-09-16T12:13:12.062Z,24.42
2016-09-16T12:14:12.915Z,24.42
2016-09-16T12:15:11.415Z,24.58
2016-09-16T12:16:11.639Z,24.68
2016-09-16T12:17:13.718Z,24.65
2016-09-16T12:18:12.083Z,24.78
2016-09-16T12:19:12.022Z,24.61
2016-09-16T12:20:12.871Z,24.86
2016-09-16T12:21:12.534Z,24.4
2016-09-16T12:22:13.324Z,24.11
2016-09-16T12:23:12.926Z,23.73
2016-09-16T12:24:12.892Z,23.87
2016-09-16T12:25:11.949Z,23.54
2016-09-16T12:26:10.968Z,23.87
2016-09-16T12:27:13.440Z,23.95
2016-09-16T12:28:14.771Z,23.46
2016-09-16T12:29:12.971Z,23.44
2016-09-16T12:30:13.808Z,23.17
2016-09-16T12:31:12.500Z,23.24
2016-09-16T12:32:12.037Z,23.31
2016-09-16T12:33:13.239Z,23.31
2016-09-16T12:34:12.639Z,23.69
2016-09-16T12:35:11.507Z,23.81
2016-09-16T12:36:12.112Z,24.03
2016-09-16T12:37:12.416Z,24.02
2016-09-16T12:38:13.019Z,24.32
2016-09-16T12:39:14.655Z,23.96
2016-09-16T12:40:12.540Z,23.86
2016-09-16T12:41:12.370Z,23.83
2016-09-16T12:42:12.715Z,24.02
2016-09-16T12:43:12.616Z,24.54
2016-09-16T12:44:14.607Z,24.58
2016-09-16T12:45:12.983Z,24.69
2016-09-16T12:46:14.926Z,24.51
2016-09-16T12:47:14.586Z,24.24
2016-09-16T12:48:12.849Z,24.48
2016-09-16T12:49:13.542Z,24.47
2016-09-16T12:50:15.059Z,24.23
2016-09-16T12:51:13.475Z,23.74
2016-09-16T12:52:14.880Z,23.99
2016-09-16T12:53:12.676Z,24.43
2016-09-16T12:54:13.695Z,24.47
2016-09-16T12:55:14.406Z,24.24
2016-09-16T12:56:14.850Z,24.16